sensor_id;sensor_type;location;lat;lon;timestamp;P1;durP1;ratioP1;P2;durP2;ratioP2
59516;SDS011;45342;42.662;27.718;2023-02-04T00:01:23;7.78;;;5.55;;
59516;SDS011;45342;42.662;27.718;2023-02-04T00:03:48;6.97;;;4.85;;
59516;SDS011;45342;42.662;27.718;2023-02-04T00:06:14;8.93;;;5.22;;
59516;SDS011;45342;42.662;27.718;2023-02-04T00:08:40;7.32;;;5.10;;
59516;SDS011;45342;42.662;27.718;2023-02-04T00:11:05;8.60;;;5.50;;
59516;SDS011;45342;42.662;27.718;2023-02-04T00:13:31;7.32;;;5.15;;
59516;SDS011;45342;42.662;27.718;2023-02-04T00:15:57;7.47;;;5.35;;
59516;SDS011;45342;42.662;27.718;2023-02-04T00:18:23;7.47;;;5.07;;
59516;SDS011;45342;42.662;27.718;2023-02-04T00:20:48;8.98;;;5.50;;
59516;SDS011;45342;42.662;27.718;2023-02-04T00:23:14;9.45;;;5.78;;
59516;SDS011;45342;42.662;27.718;2023-02-04T00:25:39;7.63;;;5.50;;
59516;SDS011;45342;42.662;27.718;2023-02-04T00:28:05;6.85;;;4.93;;
59516;SDS011;45342;42.662;27.718;2023-02-04T00:30:31;7.28;;;5.28;;
59516;SDS011;45342;42.662;27.718;2023-02-04T00:32:57;7.93;;;5.22;;
59516;SDS011;45342;42.662;27.718;2023-02-04T00:35:24;6.90;;;5.13;;
59516;SDS011;45342;42.662;27.718;2023-02-04T00:37:50;7.55;;;5.20;;
59516;SDS011;45342;42.662;27.718;2023-02-04T00:40:16;8.55;;;5.63;;
59516;SDS011;45342;42.662;27.718;2023-02-04T00:42:41;7.70;;;5.43;;
59516;SDS011;45342;42.662;27.718;2023-02-04T00:45:07;7.43;;;5.43;;
59516;SDS011;45342;42.662;27.718;2023-02-04T00:47:34;8.07;;;5.30;;
59516;SDS011;45342;42.662;27.718;2023-02-04T00:49:59;9.10;;;5.28;;
59516;SDS011;45342;42.662;27.718;2023-02-04T00:52:25;6.60;;;4.72;;
59516;SDS011;45342;42.662;27.718;2023-02-04T00:54:51;6.60;;;4.95;;
59516;SDS011;45342;42.662;27.718;2023-02-04T00:57:17;6.30;;;4.93;;
59516;SDS011;45342;42.662;27.718;2023-02-04T00:59:43;6.78;;;4.82;;
59516;SDS011;45342;42.662;27.718;2023-02-04T01:02:09;7.40;;;5.28;;
59516;SDS011;45342;42.662;27.718;2023-02-04T01:04:35;8.45;;;5.18;;
59516;SDS011;45342;42.662;27.718;2023-02-04T01:07:01;7.90;;;5.13;;
59516;SDS011;45342;42.662;27.718;2023-02-04T01:09:26;7.20;;;5.15;;
59516;SDS011;45342;42.662;27.718;2023-02-04T01:11:52;7.18;;;5.15;;
59516;SDS011;45342;42.662;27.718;2023-02-04T01:14:18;6.72;;;4.97;;
59516;SDS011;45342;42.662;27.718;2023-02-04T01:16:44;6.93;;;5.07;;
59516;SDS011;45342;42.662;27.718;2023-02-04T01:19:10;6.85;;;4.63;;
59516;SDS011;45342;42.662;27.718;2023-02-04T01:21:36;7.13;;;5.10;;
59516;SDS011;45342;42.662;27.718;2023-02-04T01:24:02;6.63;;;4.70;;
59516;SDS011;45342;42.662;27.718;2023-02-04T01:26:28;7.43;;;4.93;;
59516;SDS011;45342;42.662;27.718;2023-02-04T01:28:54;7.75;;;4.80;;
59516;SDS011;45342;42.662;27.718;2023-02-04T01:31:19;6.43;;;4.65;;
59516;SDS011;45342;42.662;27.718;2023-02-04T01:33:45;6.95;;;4.68;;
59516;SDS011;45342;42.662;27.718;2023-02-04T01:36:10;7.20;;;5.10;;
59516;SDS011;45342;42.662;27.718;2023-02-04T01:38:36;7.70;;;4.63;;
59516;SDS011;45342;42.662;27.718;2023-02-04T01:41:02;8.50;;;5.07;;
59516;SDS011;45342;42.662;27.718;2023-02-04T01:43:28;7.40;;;5.10;;
59516;SDS011;45342;42.662;27.718;2023-02-04T01:45:54;7.43;;;5.20;;
59516;SDS011;45342;42.662;27.718;2023-02-04T01:48:20;7.32;;;5.20;;
59516;SDS011;45342;42.662;27.718;2023-02-04T01:53:20;6.72;;;5.15;;
59516;SDS011;45342;42.662;27.718;2023-02-04T01:55:48;6.72;;;5.13;;
59516;SDS011;45342;42.662;27.718;2023-02-04T01:58:14;7.40;;;5.45;;
59516;SDS011;45342;42.662;27.718;2023-02-04T02:00:41;6.95;;;5.03;;
59516;SDS011;45342;42.662;27.718;2023-02-04T02:03:07;7.63;;;5.38;;
59516;SDS011;45342;42.662;27.718;2023-02-04T02:08:04;7.50;;;5.25;;
59516;SDS011;45342;42.662;27.718;2023-02-04T02:10:30;8.15;;;5.65;;
59516;SDS011;45342;42.662;27.718;2023-02-04T02:12:56;7.30;;;4.82;;
59516;SDS011;45342;42.662;27.718;2023-02-04T02:15:22;6.85;;;4.85;;
59516;SDS011;45342;42.662;27.718;2023-02-04T02:17:50;6.45;;;4.65;;
59516;SDS011;45342;42.662;27.718;2023-02-04T02:20:17;7.82;;;4.90;;
59516;SDS011;45342;42.662;27.718;2023-02-04T02:22:54;6.05;;;4.75;;
59516;SDS011;45342;42.662;27.718;2023-02-04T02:25:24;7.60;;;5.20;;
59516;SDS011;45342;42.662;27.718;2023-02-04T02:27:50;8.57;;;5.25;;
59516;SDS011;45342;42.662;27.718;2023-02-04T02:30:16;8.65;;;5.40;;
59516;SDS011;45342;42.662;27.718;2023-02-04T02:32:44;6.68;;;4.90;;
59516;SDS011;45342;42.662;27.718;2023-02-04T02:35:10;6.57;;;5.05;;
59516;SDS011;45342;42.662;27.718;2023-02-04T02:37:36;7.25;;;5.15;;
59516;SDS011;45342;42.662;27.718;2023-02-04T02:40:02;7.78;;;5.30;;
59516;SDS011;45342;42.662;27.718;2023-02-04T02:42:28;7.80;;;5.28;;
59516;SDS011;45342;42.662;27.718;2023-02-04T02:44:54;8.25;;;5.35;;
59516;SDS011;45342;42.662;27.718;2023-02-04T02:47:21;6.65;;;4.90;;
59516;SDS011;45342;42.662;27.718;2023-02-04T02:49:51;7.00;;;5.20;;
59516;SDS011;45342;42.662;27.718;2023-02-04T02:52:17;10.98;;;5.70;;
59516;SDS011;45342;42.662;27.718;2023-02-04T02:54:43;8.27;;;5.68;;
59516;SDS011;45342;42.662;27.718;2023-02-04T02:57:16;7.72;;;5.30;;
59516;SDS011;45342;42.662;27.718;2023-02-04T02:59:45;8.38;;;5.60;;
59516;SDS011;45342;42.662;27.718;2023-02-04T03:02:12;7.35;;;4.93;;
59516;SDS011;45342;42.662;27.718;2023-02-04T03:04:42;8.13;;;5.30;;
59516;SDS011;45342;42.662;27.718;2023-02-04T03:07:09;6.93;;;4.90;;
59516;SDS011;45342;42.662;27.718;2023-02-04T03:09:36;8.15;;;5.43;;
59516;SDS011;45342;42.662;27.718;2023-02-04T03:12:03;7.25;;;5.15;;
59516;SDS011;45342;42.662;27.718;2023-02-04T03:14:31;6.53;;;5.00;;
59516;SDS011;45342;42.662;27.718;2023-02-04T03:16:57;7.20;;;4.70;;
59516;SDS011;45342;42.662;27.718;2023-02-04T03:19:24;6.63;;;4.78;;
59516;SDS011;45342;42.662;27.718;2023-02-04T03:21:50;6.43;;;4.70;;
59516;SDS011;45342;42.662;27.718;2023-02-04T03:24:16;4.93;;;4.43;;
59516;SDS011;45342;42.662;27.718;2023-02-04T03:26:41;5.95;;;4.93;;
59516;SDS011;45342;42.662;27.718;2023-02-04T03:29:10;7.57;;;5.10;;
59516;SDS011;45342;42.662;27.718;2023-02-04T03:31:35;5.72;;;4.60;;
59516;SDS011;45342;42.662;27.718;2023-02-04T03:34:04;7.35;;;4.80;;
59516;SDS011;45342;42.662;27.718;2023-02-04T03:36:31;6.20;;;4.43;;
59516;SDS011;45342;42.662;27.718;2023-02-04T03:38:56;7.13;;;4.80;;
59516;SDS011;45342;42.662;27.718;2023-02-04T03:41:22;6.40;;;4.30;;
59516;SDS011;45342;42.662;27.718;2023-02-04T03:43:48;7.57;;;4.82;;
59516;SDS011;45342;42.662;27.718;2023-02-04T03:46:13;5.55;;;4.40;;
59516;SDS011;45342;42.662;27.718;2023-02-04T03:48:39;7.43;;;4.97;;
59516;SDS011;45342;42.662;27.718;2023-02-04T03:51:04;5.85;;;4.45;;
59516;SDS011;45342;42.662;27.718;2023-02-04T03:53:30;6.45;;;4.45;;
59516;SDS011;45342;42.662;27.718;2023-02-04T03:55:56;5.18;;;4.15;;
59516;SDS011;45342;42.662;27.718;2023-02-04T03:58:22;6.50;;;4.70;;
59516;SDS011;45342;42.662;27.718;2023-02-04T04:00:48;7.10;;;4.72;;
59516;SDS011;45342;42.662;27.718;2023-02-04T04:03:14;5.85;;;4.72;;
59516;SDS011;45342;42.662;27.718;2023-02-04T04:05:39;5.68;;;4.43;;
59516;SDS011;45342;42.662;27.718;2023-02-04T04:08:05;6.88;;;4.45;;
59516;SDS011;45342;42.662;27.718;2023-02-04T04:10:30;6.40;;;4.75;;
59516;SDS011;45342;42.662;27.718;2023-02-04T04:12:56;6.95;;;4.70;;
59516;SDS011;45342;42.662;27.718;2023-02-04T04:15:22;6.20;;;4.50;;
59516;SDS011;45342;42.662;27.718;2023-02-04T04:17:47;6.65;;;4.50;;
59516;SDS011;45342;42.662;27.718;2023-02-04T04:20:13;6.70;;;4.68;;
59516;SDS011;45342;42.662;27.718;2023-02-04T04:22:40;6.05;;;4.40;;
59516;SDS011;45342;42.662;27.718;2023-02-04T04:25:06;5.80;;;4.60;;
59516;SDS011;45342;42.662;27.718;2023-02-04T04:29:57;6.78;;;4.70;;
59516;SDS011;45342;42.662;27.718;2023-02-04T04:32:23;5.65;;;4.40;;
59516;SDS011;45342;42.662;27.718;2023-02-04T04:34:49;6.03;;;4.50;;
59516;SDS011;45342;42.662;27.718;2023-02-04T04:37:16;5.88;;;4.53;;
59516;SDS011;45342;42.662;27.718;2023-02-04T04:39:42;7.90;;;4.70;;
59516;SDS011;45342;42.662;27.718;2023-02-04T04:42:07;6.93;;;4.65;;
59516;SDS011;45342;42.662;27.718;2023-02-04T04:44:33;5.32;;;4.28;;
59516;SDS011;45342;42.662;27.718;2023-02-04T04:47:00;6.10;;;4.13;;
59516;SDS011;45342;42.662;27.718;2023-02-04T04:49:27;6.10;;;4.60;;
59516;SDS011;45342;42.662;27.718;2023-02-04T04:51:53;6.35;;;4.30;;
59516;SDS011;45342;42.662;27.718;2023-02-04T04:54:19;5.18;;;4.05;;
59516;SDS011;45342;42.662;27.718;2023-02-04T04:56:44;7.28;;;4.57;;
59516;SDS011;45342;42.662;27.718;2023-02-04T04:59:11;5.80;;;4.03;;
59516;SDS011;45342;42.662;27.718;2023-02-04T05:01:38;6.60;;;4.90;;
59516;SDS011;45342;42.662;27.718;2023-02-04T05:04:03;7.65;;;5.25;;
59516;SDS011;45342;42.662;27.718;2023-02-04T05:06:29;5.90;;;4.40;;
59516;SDS011;45342;42.662;27.718;2023-02-04T05:08:55;6.15;;;4.45;;
59516;SDS011;45342;42.662;27.718;2023-02-04T05:11:21;6.38;;;4.53;;
59516;SDS011;45342;42.662;27.718;2023-02-04T05:13:46;5.90;;;4.45;;
59516;SDS011;45342;42.662;27.718;2023-02-04T05:16:12;5.95;;;4.50;;
59516;SDS011;45342;42.662;27.718;2023-02-04T05:18:38;6.03;;;4.20;;
59516;SDS011;45342;42.662;27.718;2023-02-04T05:21:04;6.75;;;4.75;;
59516;SDS011;45342;42.662;27.718;2023-02-04T05:23:31;6.00;;;4.53;;
59516;SDS011;45342;42.662;27.718;2023-02-04T05:25:56;7.32;;;4.35;;
59516;SDS011;45342;42.662;27.718;2023-02-04T05:28:22;7.50;;;5.53;;
59516;SDS011;45342;42.662;27.718;2023-02-04T05:30:47;6.88;;;4.75;;
59516;SDS011;45342;42.662;27.718;2023-02-04T05:33:13;6.40;;;5.13;;
59516;SDS011;45342;42.662;27.718;2023-02-04T05:35:39;6.22;;;4.75;;
59516;SDS011;45342;42.662;27.718;2023-02-04T05:38:04;6.53;;;4.63;;
59516;SDS011;45342;42.662;27.718;2023-02-04T05:40:30;6.68;;;4.72;;
59516;SDS011;45342;42.662;27.718;2023-02-04T05:42:55;7.35;;;4.90;;
59516;SDS011;45342;42.662;27.718;2023-02-04T05:45:21;6.75;;;4.93;;
59516;SDS011;45342;42.662;27.718;2023-02-04T05:47:46;6.30;;;4.63;;
59516;SDS011;45342;42.662;27.718;2023-02-04T05:50:12;6.95;;;4.63;;
59516;SDS011;45342;42.662;27.718;2023-02-04T05:52:38;5.22;;;4.25;;
59516;SDS011;45342;42.662;27.718;2023-02-04T05:55:04;6.82;;;4.72;;
59516;SDS011;45342;42.662;27.718;2023-02-04T05:57:30;6.50;;;4.97;;
59516;SDS011;45342;42.662;27.718;2023-02-04T05:59:56;6.25;;;4.57;;
59516;SDS011;45342;42.662;27.718;2023-02-04T06:02:22;7.40;;;5.00;;
59516;SDS011;45342;42.662;27.718;2023-02-04T06:04:47;6.15;;;4.65;;
59516;SDS011;45342;42.662;27.718;2023-02-04T06:07:13;5.75;;;4.50;;
59516;SDS011;45342;42.662;27.718;2023-02-04T06:09:38;6.18;;;4.68;;
59516;SDS011;45342;42.662;27.718;2023-02-04T06:12:04;7.35;;;4.90;;
59516;SDS011;45342;42.662;27.718;2023-02-04T06:14:29;6.57;;;4.47;;
59516;SDS011;45342;42.662;27.718;2023-02-04T06:16:56;6.90;;;4.70;;
59516;SDS011;45342;42.662;27.718;2023-02-04T06:19:23;7.15;;;4.97;;
59516;SDS011;45342;42.662;27.718;2023-02-04T06:21:50;6.32;;;4.80;;
59516;SDS011;45342;42.662;27.718;2023-02-04T06:24:15;6.55;;;4.72;;
59516;SDS011;45342;42.662;27.718;2023-02-04T06:26:41;6.78;;;4.63;;
59516;SDS011;45342;42.662;27.718;2023-02-04T06:29:07;6.35;;;4.65;;
59516;SDS011;45342;42.662;27.718;2023-02-04T06:31:33;6.78;;;5.30;;
59516;SDS011;45342;42.662;27.718;2023-02-04T06:34:04;6.28;;;4.45;;
59516;SDS011;45342;42.662;27.718;2023-02-04T06:36:29;7.47;;;5.03;;
59516;SDS011;45342;42.662;27.718;2023-02-04T06:38:57;6.22;;;4.72;;
59516;SDS011;45342;42.662;27.718;2023-02-04T06:41:37;6.13;;;5.00;;
59516;SDS011;45342;42.662;27.718;2023-02-04T06:46:32;7.53;;;5.25;;
59516;SDS011;45342;42.662;27.718;2023-02-04T06:49:21;6.95;;;4.88;;
59516;SDS011;45342;42.662;27.718;2023-02-04T06:57:29;8.55;;;5.65;;
59516;SDS011;45342;42.662;27.718;2023-02-04T07:00:01;8.48;;;6.00;;
59516;SDS011;45342;42.662;27.718;2023-02-04T07:02:28;10.25;;;5.65;;
59516;SDS011;45342;42.662;27.718;2023-02-04T07:08:11;7.90;;;5.57;;
59516;SDS011;45342;42.662;27.718;2023-02-04T07:10:37;9.30;;;5.93;;
59516;SDS011;45342;42.662;27.718;2023-02-04T07:13:07;7.85;;;5.90;;
59516;SDS011;45342;42.662;27.718;2023-02-04T07:15:33;8.27;;;5.28;;
59516;SDS011;45342;42.662;27.718;2023-02-04T07:17:58;7.43;;;5.53;;
59516;SDS011;45342;42.662;27.718;2023-02-04T07:20:25;8.32;;;5.63;;
59516;SDS011;45342;42.662;27.718;2023-02-04T07:22:52;6.57;;;5.05;;
59516;SDS011;45342;42.662;27.718;2023-02-04T07:25:18;7.30;;;5.20;;
59516;SDS011;45342;42.662;27.718;2023-02-04T07:27:46;8.55;;;5.30;;
59516;SDS011;45342;42.662;27.718;2023-02-04T07:30:12;7.53;;;5.32;;
59516;SDS011;45342;42.662;27.718;2023-02-04T07:32:38;7.43;;;5.18;;
59516;SDS011;45342;42.662;27.718;2023-02-04T07:35:03;7.93;;;5.38;;
59516;SDS011;45342;42.662;27.718;2023-02-04T07:37:29;5.43;;;4.40;;
59516;SDS011;45342;42.662;27.718;2023-02-04T07:39:55;7.05;;;5.05;;
59516;SDS011;45342;42.662;27.718;2023-02-04T07:42:22;7.35;;;5.10;;
59516;SDS011;45342;42.662;27.718;2023-02-04T07:44:57;7.57;;;5.25;;
59516;SDS011;45342;42.662;27.718;2023-02-04T07:47:24;6.00;;;4.93;;
59516;SDS011;45342;42.662;27.718;2023-02-04T07:49:50;7.03;;;5.00;;
59516;SDS011;45342;42.662;27.718;2023-02-04T07:52:15;5.88;;;4.53;;
59516;SDS011;45342;42.662;27.718;2023-02-04T07:54:44;6.82;;;4.80;;
59516;SDS011;45342;42.662;27.718;2023-02-04T07:57:27;6.90;;;4.63;;
59516;SDS011;45342;42.662;27.718;2023-02-04T08:02:29;5.88;;;4.82;;
59516;SDS011;45342;42.662;27.718;2023-02-04T08:04:55;7.40;;;5.20;;
59516;SDS011;45342;42.662;27.718;2023-02-04T08:12:29;6.68;;;4.95;;
59516;SDS011;45342;42.662;27.718;2023-02-04T08:17:32;6.05;;;4.72;;
59516;SDS011;45342;42.662;27.718;2023-02-04T08:20:00;8.52;;;5.47;;
59516;SDS011;45342;42.662;27.718;2023-02-04T08:22:26;6.88;;;5.18;;
59516;SDS011;45342;42.662;27.718;2023-02-04T08:24:53;7.15;;;5.22;;
59516;SDS011;45342;42.662;27.718;2023-02-04T08:27:18;7.40;;;5.30;;
59516;SDS011;45342;42.662;27.718;2023-02-04T08:29:44;7.50;;;5.57;;
59516;SDS011;45342;42.662;27.718;2023-02-04T08:34:42;7.15;;;5.20;;
59516;SDS011;45342;42.662;27.718;2023-02-04T08:42:53;7.32;;;5.55;;
59516;SDS011;45342;42.662;27.718;2023-02-04T08:45:22;8.50;;;5.63;;
59516;SDS011;45342;42.662;27.718;2023-02-04T08:47:50;9.63;;;5.72;;
59516;SDS011;45342;42.662;27.718;2023-02-04T08:50:18;7.97;;;5.53;;
59516;SDS011;45342;42.662;27.718;2023-02-04T08:52:57;8.63;;;6.07;;
59516;SDS011;45342;42.662;27.718;2023-02-04T08:57:55;7.78;;;5.57;;
59516;SDS011;45342;42.662;27.718;2023-02-04T09:03:45;7.10;;;5.30;;
59516;SDS011;45342;42.662;27.718;2023-02-04T09:06:11;6.97;;;5.30;;
59516;SDS011;45342;42.662;27.718;2023-02-04T09:08:36;8.05;;;5.30;;
59516;SDS011;45342;42.662;27.718;2023-02-04T09:11:02;7.55;;;5.43;;
59516;SDS011;45342;42.662;27.718;2023-02-04T09:13:29;8.02;;;5.57;;
59516;SDS011;45342;42.662;27.718;2023-02-04T09:15:59;7.68;;;5.00;;
59516;SDS011;45342;42.662;27.718;2023-02-04T09:18:32;7.38;;;5.00;;
59516;SDS011;45342;42.662;27.718;2023-02-04T09:20:58;7.50;;;5.70;;
59516;SDS011;45342;42.662;27.718;2023-02-04T09:23:24;7.55;;;5.28;;
59516;SDS011;45342;42.662;27.718;2023-02-04T09:25:54;8.32;;;5.68;;
59516;SDS011;45342;42.662;27.718;2023-02-04T09:28:19;7.22;;;4.68;;
59516;SDS011;45342;42.662;27.718;2023-02-04T09:30:46;7.57;;;5.30;;
59516;SDS011;45342;42.662;27.718;2023-02-04T09:33:13;7.20;;;4.95;;
59516;SDS011;45342;42.662;27.718;2023-02-04T09:35:40;7.40;;;5.15;;
59516;SDS011;45342;42.662;27.718;2023-02-04T09:38:07;7.47;;;5.32;;
59516;SDS011;45342;42.662;27.718;2023-02-04T09:40:33;7.70;;;5.13;;
59516;SDS011;45342;42.662;27.718;2023-02-04T09:43:00;8.15;;;5.22;;
59516;SDS011;45342;42.662;27.718;2023-02-04T09:45:33;5.82;;;4.68;;
59516;SDS011;45342;42.662;27.718;2023-02-04T09:48:01;7.03;;;4.72;;
59516;SDS011;45342;42.662;27.718;2023-02-04T09:50:36;6.30;;;4.82;;
59516;SDS011;45342;42.662;27.718;2023-02-04T09:53:03;8.93;;;5.25;;
59516;SDS011;45342;42.662;27.718;2023-02-04T09:55:39;7.05;;;5.25;;
59516;SDS011;45342;42.662;27.718;2023-02-04T09:58:17;7.45;;;5.22;;
59516;SDS011;45342;42.662;27.718;2023-02-04T10:03:46;7.20;;;5.10;;
59516;SDS011;45342;42.662;27.718;2023-02-04T10:06:19;6.97;;;4.95;;
59516;SDS011;45342;42.662;27.718;2023-02-04T10:08:59;6.93;;;4.90;;
59516;SDS011;45342;42.662;27.718;2023-02-04T10:11:26;6.50;;;4.72;;
59516;SDS011;45342;42.662;27.718;2023-02-04T10:14:03;6.68;;;5.20;;
59516;SDS011;45342;42.662;27.718;2023-02-04T10:16:31;6.75;;;5.00;;
59516;SDS011;45342;42.662;27.718;2023-02-04T10:21:35;6.88;;;4.90;;
59516;SDS011;45342;42.662;27.718;2023-02-04T10:24:03;6.70;;;4.93;;
59516;SDS011;45342;42.662;27.718;2023-02-04T10:26:31;6.72;;;4.80;;
59516;SDS011;45342;42.662;27.718;2023-02-04T10:29:01;6.95;;;4.90;;
59516;SDS011;45342;42.662;27.718;2023-02-04T10:31:32;7.38;;;5.40;;
59516;SDS011;45342;42.662;27.718;2023-02-04T10:37:27;8.80;;;5.20;;
59516;SDS011;45342;42.662;27.718;2023-02-04T10:46:19;7.28;;;5.07;;
59516;SDS011;45342;42.662;27.718;2023-02-04T10:48:45;7.93;;;5.25;;
59516;SDS011;45342;42.662;27.718;2023-02-04T10:51:11;7.07;;;5.22;;
59516;SDS011;45342;42.662;27.718;2023-02-04T10:53:39;8.35;;;5.50;;
59516;SDS011;45342;42.662;27.718;2023-02-04T10:56:32;7.28;;;5.38;;
59516;SDS011;45342;42.662;27.718;2023-02-04T10:58:59;8.48;;;5.95;;
59516;SDS011;45342;42.662;27.718;2023-02-04T11:01:33;7.93;;;5.40;;
59516;SDS011;45342;42.662;27.718;2023-02-04T11:03:59;8.30;;;5.45;;
59516;SDS011;45342;42.662;27.718;2023-02-04T11:06:26;7.97;;;6.00;;
59516;SDS011;45342;42.662;27.718;2023-02-04T11:08:54;8.45;;;5.93;;
59516;SDS011;45342;42.662;27.718;2023-02-04T11:16:27;10.80;;;7.32;;
59516;SDS011;45342;42.662;27.718;2023-02-04T11:26:40;12.75;;;8.13;;
59516;SDS011;45342;42.662;27.718;2023-02-04T11:32:27;11.38;;;7.75;;
59516;SDS011;45342;42.662;27.718;2023-02-04T11:35:04;13.88;;;8.90;;
59516;SDS011;45342;42.662;27.718;2023-02-04T11:37:51;13.90;;;8.25;;
59516;SDS011;45342;42.662;27.718;2023-02-04T11:40:24;10.93;;;7.32;;
59516;SDS011;45342;42.662;27.718;2023-02-04T11:43:12;11.20;;;7.22;;
59516;SDS011;45342;42.662;27.718;2023-02-04T11:45:39;11.50;;;7.53;;
59516;SDS011;45342;42.662;27.718;2023-02-04T11:48:18;11.43;;;7.43;;
59516;SDS011;45342;42.662;27.718;2023-02-04T11:51:00;13.50;;;8.32;;
59516;SDS011;45342;42.662;27.718;2023-02-04T11:53:27;12.38;;;8.32;;
59516;SDS011;45342;42.662;27.718;2023-02-04T11:55:55;13.15;;;8.52;;
59516;SDS011;45342;42.662;27.718;2023-02-04T11:58:21;12.25;;;7.90;;
59516;SDS011;45342;42.662;27.718;2023-02-04T12:00:51;13.52;;;8.90;;
59516;SDS011;45342;42.662;27.718;2023-02-04T12:05:48;11.27;;;8.00;;
59516;SDS011;45342;42.662;27.718;2023-02-04T12:11:22;12.63;;;9.05;;
59516;SDS011;45342;42.662;27.718;2023-02-04T12:13:52;12.93;;;8.52;;
59516;SDS011;45342;42.662;27.718;2023-02-04T12:16:19;12.20;;;8.30;;
59516;SDS011;45342;42.662;27.718;2023-02-04T12:18:45;12.80;;;8.32;;
59516;SDS011;45342;42.662;27.718;2023-02-04T12:21:11;12.13;;;8.13;;
59516;SDS011;45342;42.662;27.718;2023-02-04T12:23:40;13.20;;;8.77;;
59516;SDS011;45342;42.662;27.718;2023-02-04T12:26:09;13.75;;;8.90;;
59516;SDS011;45342;42.662;27.718;2023-02-04T12:28:36;12.05;;;8.40;;
59516;SDS011;45342;42.662;27.718;2023-02-04T12:31:03;12.75;;;8.38;;
59516;SDS011;45342;42.662;27.718;2023-02-04T12:33:30;14.07;;;8.98;;
59516;SDS011;45342;42.662;27.718;2023-02-04T12:35:55;12.98;;;8.32;;
59516;SDS011;45342;42.662;27.718;2023-02-04T12:38:21;11.20;;;7.97;;
59516;SDS011;45342;42.662;27.718;2023-02-04T12:40:46;10.43;;;8.13;;
59516;SDS011;45342;42.662;27.718;2023-02-04T12:43:12;13.98;;;8.60;;
59516;SDS011;45342;42.662;27.718;2023-02-04T12:45:38;13.20;;;8.88;;
59516;SDS011;45342;42.662;27.718;2023-02-04T12:48:07;14.82;;;8.90;;
59516;SDS011;45342;42.662;27.718;2023-02-04T12:50:33;12.65;;;8.73;;
59516;SDS011;45342;42.662;27.718;2023-02-04T12:52:58;12.95;;;8.57;;
59516;SDS011;45342;42.662;27.718;2023-02-04T12:55:25;12.07;;;8.70;;
59516;SDS011;45342;42.662;27.718;2023-02-04T12:57:55;11.77;;;8.30;;
59516;SDS011;45342;42.662;27.718;2023-02-04T13:00:22;11.15;;;8.13;;
59516;SDS011;45342;42.662;27.718;2023-02-04T13:02:48;13.38;;;9.20;;
59516;SDS011;45342;42.662;27.718;2023-02-04T13:05:15;12.40;;;8.15;;
59516;SDS011;45342;42.662;27.718;2023-02-04T13:07:41;12.23;;;8.35;;
59516;SDS011;45342;42.662;27.718;2023-02-04T13:10:09;13.10;;;8.77;;
59516;SDS011;45342;42.662;27.718;2023-02-04T13:12:36;12.48;;;8.55;;
59516;SDS011;45342;42.662;27.718;2023-02-04T13:15:02;13.40;;;8.93;;
59516;SDS011;45342;42.662;27.718;2023-02-04T13:17:28;11.75;;;8.13;;
59516;SDS011;45342;42.662;27.718;2023-02-04T13:19:54;12.27;;;8.47;;
59516;SDS011;45342;42.662;27.718;2023-02-04T13:22:20;12.68;;;8.57;;
59516;SDS011;45342;42.662;27.718;2023-02-04T13:24:46;12.55;;;8.07;;
59516;SDS011;45342;42.662;27.718;2023-02-04T13:27:11;12.25;;;8.23;;
59516;SDS011;45342;42.662;27.718;2023-02-04T13:29:37;12.02;;;8.55;;
59516;SDS011;45342;42.662;27.718;2023-02-04T13:32:04;12.00;;;8.52;;
59516;SDS011;45342;42.662;27.718;2023-02-04T13:34:31;12.07;;;8.70;;
59516;SDS011;45342;42.662;27.718;2023-02-04T13:36:56;11.93;;;8.18;;
59516;SDS011;45342;42.662;27.718;2023-02-04T13:39:22;10.40;;;7.90;;
59516;SDS011;45342;42.662;27.718;2023-02-04T13:41:47;12.23;;;8.45;;
59516;SDS011;45342;42.662;27.718;2023-02-04T13:44:13;11.82;;;8.63;;
59516;SDS011;45342;42.662;27.718;2023-02-04T13:46:40;11.68;;;7.75;;
59516;SDS011;45342;42.662;27.718;2023-02-04T13:51:37;14.43;;;8.95;;
59516;SDS011;45342;42.662;27.718;2023-02-04T13:54:02;12.48;;;8.10;;
59516;SDS011;45342;42.662;27.718;2023-02-04T13:56:28;16.52;;;9.48;;
59516;SDS011;45342;42.662;27.718;2023-02-04T13:58:55;17.80;;;11.18;;
59516;SDS011;45342;42.662;27.718;2023-02-04T14:01:21;19.70;;;10.98;;
59516;SDS011;45342;42.662;27.718;2023-02-04T14:03:46;17.63;;;9.75;;
59516;SDS011;45342;42.662;27.718;2023-02-04T14:06:12;21.85;;;12.30;;
59516;SDS011;45342;42.662;27.718;2023-02-04T14:08:39;24.45;;;11.95;;
59516;SDS011;45342;42.662;27.718;2023-02-04T14:11:04;24.85;;;12.32;;
59516;SDS011;45342;42.662;27.718;2023-02-04T14:15:56;19.35;;;10.13;;
59516;SDS011;45342;42.662;27.718;2023-02-04T14:18:22;17.73;;;10.70;;
59516;SDS011;45342;42.662;27.718;2023-02-04T14:20:48;20.92;;;10.43;;
59516;SDS011;45342;42.662;27.718;2023-02-04T14:23:13;18.95;;;10.23;;
59516;SDS011;45342;42.662;27.718;2023-02-04T14:25:39;18.35;;;10.10;;
59516;SDS011;45342;42.662;27.718;2023-02-04T14:28:04;17.52;;;10.00;;
59516;SDS011;45342;42.662;27.718;2023-02-04T14:30:31;18.55;;;10.40;;
59516;SDS011;45342;42.662;27.718;2023-02-04T14:32:56;17.40;;;10.07;;
59516;SDS011;45342;42.662;27.718;2023-02-04T14:35:23;15.00;;;9.55;;
59516;SDS011;45342;42.662;27.718;2023-02-04T14:40:16;15.40;;;8.93;;
59516;SDS011;45342;42.662;27.718;2023-02-04T14:42:44;16.73;;;9.05;;
59516;SDS011;45342;42.662;27.718;2023-02-04T14:45:11;16.48;;;9.50;;
59516;SDS011;45342;42.662;27.718;2023-02-04T14:47:37;16.13;;;9.40;;
59516;SDS011;45342;42.662;27.718;2023-02-04T14:50:07;14.63;;;9.45;;
59516;SDS011;45342;42.662;27.718;2023-02-04T14:52:41;16.67;;;9.75;;
59516;SDS011;45342;42.662;27.718;2023-02-04T14:55:07;15.65;;;9.05;;
59516;SDS011;45342;42.662;27.718;2023-02-04T14:57:37;15.25;;;9.52;;
59516;SDS011;45342;42.662;27.718;2023-02-04T15:00:03;37.03;;;10.25;;
59516;SDS011;45342;42.662;27.718;2023-02-04T15:02:31;16.08;;;9.57;;
59516;SDS011;45342;42.662;27.718;2023-02-04T15:04:57;16.55;;;8.95;;
59516;SDS011;45342;42.662;27.718;2023-02-04T15:07:23;15.98;;;9.02;;
59516;SDS011;45342;42.662;27.718;2023-02-04T15:09:53;16.40;;;9.10;;
59516;SDS011;45342;42.662;27.718;2023-02-04T15:12:19;14.63;;;8.68;;
59516;SDS011;45342;42.662;27.718;2023-02-04T15:14:47;15.52;;;9.30;;
59516;SDS011;45342;42.662;27.718;2023-02-04T15:17:14;15.18;;;9.07;;
59516;SDS011;45342;42.662;27.718;2023-02-04T15:19:39;13.70;;;8.45;;
59516;SDS011;45342;42.662;27.718;2023-02-04T15:22:05;13.68;;;8.80;;
59516;SDS011;45342;42.662;27.718;2023-02-04T15:24:30;13.88;;;8.65;;
59516;SDS011;45342;42.662;27.718;2023-02-04T15:26:56;13.43;;;8.70;;
59516;SDS011;45342;42.662;27.718;2023-02-04T15:29:22;14.00;;;8.85;;
59516;SDS011;45342;42.662;27.718;2023-02-04T15:31:47;12.55;;;8.13;;
59516;SDS011;45342;42.662;27.718;2023-02-04T15:34:13;15.55;;;8.90;;
59516;SDS011;45342;42.662;27.718;2023-02-04T15:36:38;13.63;;;8.75;;
59516;SDS011;45342;42.662;27.718;2023-02-04T15:39:05;12.95;;;8.35;;
59516;SDS011;45342;42.662;27.718;2023-02-04T15:41:31;14.85;;;8.88;;
59516;SDS011;45342;42.662;27.718;2023-02-04T15:43:56;13.07;;;8.13;;
59516;SDS011;45342;42.662;27.718;2023-02-04T15:46:22;13.85;;;8.43;;
59516;SDS011;45342;42.662;27.718;2023-02-04T15:48:48;14.77;;;8.65;;
59516;SDS011;45342;42.662;27.718;2023-02-04T15:51:13;14.20;;;8.75;;
59516;SDS011;45342;42.662;27.718;2023-02-04T15:53:39;14.65;;;8.43;;
59516;SDS011;45342;42.662;27.718;2023-02-04T15:56:05;13.82;;;8.18;;
59516;SDS011;45342;42.662;27.718;2023-02-04T15:58:31;12.52;;;7.93;;